sensor_id;sensor_type;location;lat;lon;timestamp;noise_LAeq;noise_LA_min;noise_LA_max;noise_LA01;noise_LA95
67398;Laerm;57728;50.448;18.824;2023-09-18T00:00:58;33.89;32.89;35.01;;
67398;Laerm;57728;50.448;18.824;2023-09-18T00:03:00;33.92;32.81;35.53;;
67398;Laerm;57728;50.448;18.824;2023-09-18T00:05:04;33.91;32.91;34.87;;
67398;Laerm;57728;50.448;18.824;2023-09-18T00:07:05;34.00;32.98;35.29;;
67398;Laerm;57728;50.448;18.824;2023-09-18T00:09:07;33.96;32.99;36.55;;
67398;Laerm;57728;50.448;18.824;2023-09-18T00:11:12;33.87;32.86;35.68;;
67398;Laerm;57728;50.448;18.824;2023-09-18T00:13:14;33.86;32.75;35.25;;
67398;Laerm;57728;50.448;18.824;2023-09-18T00:15:16;33.87;32.56;34.83;;
67398;Laerm;57728;50.448;18.824;2023-09-18T00:17:17;33.88;32.72;35.03;;
67398;Laerm;57728;50.448;18.824;2023-09-18T00:19:18;33.90;32.74;35.27;;
67398;Laerm;57728;50.448;18.824;2023-09-18T00:21:20;33.91;32.81;35.75;;
67398;Laerm;57728;50.448;18.824;2023-09-18T00:23:22;33.97;32.80;35.35;;
67398;Laerm;57728;50.448;18.824;2023-09-18T00:25:23;33.94;32.61;41.51;;
67398;Laerm;57728;50.448;18.824;2023-09-18T00:27:25;33.96;32.69;37.58;;
67398;Laerm;57728;50.448;18.824;2023-09-18T00:29:26;33.83;32.84;34.83;;
67398;Laerm;57728;50.448;18.824;2023-09-18T00:31:27;33.89;32.74;35.46;;
67398;Laerm;57728;50.448;18.824;2023-09-18T00:33:29;33.95;32.82;40.16;;
67398;Laerm;57728;50.448;18.824;2023-09-18T00:35:30;34.01;32.94;38.83;;
67398;Laerm;57728;50.448;18.824;2023-09-18T00:37:31;33.88;32.85;35.62;;
67398;Laerm;57728;50.448;18.824;2023-09-18T00:39:33;33.93;32.79;37.77;;
67398;Laerm;57728;50.448;18.824;2023-09-18T00:41:36;33.80;32.77;34.90;;
67398;Laerm;57728;50.448;18.824;2023-09-18T00:43:37;33.85;32.75;34.82;;
67398;Laerm;57728;50.448;18.824;2023-09-18T00:45:45;33.84;32.82;34.76;;
67398;Laerm;57728;50.448;18.824;2023-09-18T00:47:47;33.86;32.86;36.41;;
67398;Laerm;57728;50.448;18.824;2023-09-18T00:49:52;33.92;32.74;40.49;;
67398;Laerm;57728;50.448;18.824;2023-09-18T00:51:54;33.86;32.84;37.57;;
67398;Laerm;57728;50.448;18.824;2023-09-18T00:53:55;33.81;32.73;35.38;;
67398;Laerm;57728;50.448;18.824;2023-09-18T00:56:00;33.78;32.67;35.69;;
67398;Laerm;57728;50.448;18.824;2023-09-18T00:58:06;34.14;32.64;46.50;;
67398;Laerm;57728;50.448;18.824;2023-09-18T01:00:08;33.86;32.44;35.01;;
67398;Laerm;57728;50.448;18.824;2023-09-18T01:02:09;33.93;32.56;39.06;;
67398;Laerm;57728;50.448;18.824;2023-09-18T01:04:12;33.94;32.84;40.92;;
67398;Laerm;57728;50.448;18.824;2023-09-18T01:06:14;33.87;32.74;35.58;;
67398;Laerm;57728;50.448;18.824;2023-09-18T01:08:16;33.91;32.75;36.29;;
67398;Laerm;57728;50.448;18.824;2023-09-18T01:10:19;33.87;32.86;35.56;;
67398;Laerm;57728;50.448;18.824;2023-09-18T01:12:40;33.91;32.60;35.09;;
67398;Laerm;57728;50.448;18.824;2023-09-18T01:15:09;33.90;32.72;35.00;;
67398;Laerm;57728;50.448;18.824;2023-09-18T01:17:14;34.00;32.69;38.32;;
67398;Laerm;57728;50.448;18.824;2023-09-18T01:19:16;33.91;32.64;36.26;;
67398;Laerm;57728;50.448;18.824;2023-09-18T01:21:21;33.95;32.75;36.60;;
67398;Laerm;57728;50.448;18.824;2023-09-18T01:23:23;33.99;32.79;39.00;;
67398;Laerm;57728;50.448;18.824;2023-09-18T01:25:24;33.92;32.81;36.42;;
67398;Laerm;57728;50.448;18.824;2023-09-18T01:27:25;33.94;32.80;41.80;;
67398;Laerm;57728;50.448;18.824;2023-09-18T01:29:27;33.92;32.78;35.74;;
67398;Laerm;57728;50.448;18.824;2023-09-18T01:31:30;33.92;32.94;36.35;;
67398;Laerm;57728;50.448;18.824;2023-09-18T01:33:34;33.91;32.75;37.08;;
67398;Laerm;57728;50.448;18.824;2023-09-18T01:35:38;33.91;32.87;39.13;;
67398;Laerm;57728;50.448;18.824;2023-09-18T01:37:42;33.89;32.74;35.70;;
67398;Laerm;57728;50.448;18.824;2023-09-18T01:39:49;33.91;32.84;35.54;;
67398;Laerm;57728;50.448;18.824;2023-09-18T01:41:51;33.91;32.57;36.71;;
67398;Laerm;57728;50.448;18.824;2023-09-18T01:43:53;33.99;32.89;36.96;;
67398;Laerm;57728;50.448;18.824;2023-09-18T01:45:56;33.87;32.89;34.91;;
67398;Laerm;57728;50.448;18.824;2023-09-18T01:47:58;33.92;32.91;38.55;;
67398;Laerm;57728;50.448;18.824;2023-09-18T01:50:04;33.86;32.72;35.34;;
67398;Laerm;57728;50.448;18.824;2023-09-18T01:52:08;33.94;32.77;45.24;;
67398;Laerm;57728;50.448;18.824;2023-09-18T01:54:11;33.96;32.66;36.55;;
67398;Laerm;57728;50.448;18.824;2023-09-18T01:56:13;34.22;32.72;47.03;;
67398;Laerm;57728;50.448;18.824;2023-09-18T01:58:14;34.16;32.66;41.79;;
67398;Laerm;57728;50.448;18.824;2023-09-18T02:00:15;33.92;33.00;35.36;;
67398;Laerm;57728;50.448;18.824;2023-09-18T02:02:17;33.99;32.83;36.33;;
67398;Laerm;57728;50.448;18.824;2023-09-18T02:04:21;34.00;32.88;39.48;;
67398;Laerm;57728;50.448;18.824;2023-09-18T02:06:23;34.07;32.78;40.19;;
67398;Laerm;57728;50.448;18.824;2023-09-18T02:08:25;34.13;32.98;38.93;;
67398;Laerm;57728;50.448;18.824;2023-09-18T02:10:26;34.08;32.69;40.45;;
67398;Laerm;57728;50.448;18.824;2023-09-18T02:12:27;34.02;32.58;38.00;;
67398;Laerm;57728;50.448;18.824;2023-09-18T02:14:29;33.92;32.78;35.28;;
67398;Laerm;57728;50.448;18.824;2023-09-18T02:16:37;34.09;32.86;39.07;;
67398;Laerm;57728;50.448;18.824;2023-09-18T02:18:41;33.99;32.87;39.80;;
67398;Laerm;57728;50.448;18.824;2023-09-18T02:20:45;34.15;32.98;41.31;;
67398;Laerm;57728;50.448;18.824;2023-09-18T02:22:49;34.25;32.87;43.57;;
67398;Laerm;57728;50.448;18.824;2023-09-18T02:24:50;34.03;32.94;37.20;;
67398;Laerm;57728;50.448;18.824;2023-09-18T02:26:52;33.97;32.88;37.97;;
67398;Laerm;57728;50.448;18.824;2023-09-18T02:29:02;34.04;32.87;39.13;;
67398;Laerm;57728;50.448;18.824;2023-09-18T02:31:05;34.12;32.96;37.13;;
67398;Laerm;57728;50.448;18.824;2023-09-18T02:33:08;34.18;32.93;42.49;;
67398;Laerm;57728;50.448;18.824;2023-09-18T02:35:10;34.21;32.77;42.84;;
67398;Laerm;57728;50.448;18.824;2023-09-18T02:37:11;34.21;32.88;41.98;;
67398;Laerm;57728;50.448;18.824;2023-09-18T02:39:13;34.15;32.87;45.92;;
67398;Laerm;57728;50.448;18.824;2023-09-18T02:41:14;34.02;32.69;38.52;;
67398;Laerm;57728;50.448;18.824;2023-09-18T02:43:15;33.97;32.88;35.86;;
67398;Laerm;57728;50.448;18.824;2023-09-18T02:45:17;34.05;32.81;36.26;;
67398;Laerm;57728;50.448;18.824;2023-09-18T02:47:18;33.95;32.86;35.65;;
67398;Laerm;57728;50.448;18.824;2023-09-18T02:49:20;34.02;32.78;38.26;;
67398;Laerm;57728;50.448;18.824;2023-09-18T02:51:22;34.08;32.89;47.46;;
67398;Laerm;57728;50.448;18.824;2023-09-18T02:53:24;33.91;32.63;36.67;;
67398;Laerm;57728;50.448;18.824;2023-09-18T02:55:25;34.18;32.86;40.80;;
67398;Laerm;57728;50.448;18.824;2023-09-18T02:57:27;34.07;32.78;47.04;;
67398;Laerm;57728;50.448;18.824;2023-09-18T02:59:29;33.96;32.83;36.04;;
67398;Laerm;57728;50.448;18.824;2023-09-18T03:01:30;34.07;33.15;36.14;;
67398;Laerm;57728;50.448;18.824;2023-09-18T03:03:33;33.93;32.88;35.68;;
67398;Laerm;57728;50.448;18.824;2023-09-18T03:05:35;34.01;33.00;37.72;;
67398;Laerm;57728;50.448;18.824;2023-09-18T03:07:36;33.99;32.96;36.22;;
67398;Laerm;57728;50.448;18.824;2023-09-18T03:09:38;34.00;32.89;36.67;;
67398;Laerm;57728;50.448;18.824;2023-09-18T03:11:40;34.15;32.95;39.10;;
67398;Laerm;57728;50.448;18.824;2023-09-18T03:13:46;34.21;32.77;37.76;;
67398;Laerm;57728;50.448;18.824;2023-09-18T03:15:50;34.21;33.10;39.33;;
67398;Laerm;57728;50.448;18.824;2023-09-18T03:17:51;34.43;33.16;39.50;;
67398;Laerm;57728;50.448;18.824;2023-09-18T03:19:52;34.40;33.06;41.95;;
67398;Laerm;57728;50.448;18.824;2023-09-18T03:21:54;34.37;33.18;39.23;;
67398;Laerm;57728;50.448;18.824;2023-09-18T03:23:56;34.46;33.08;40.11;;
67398;Laerm;57728;50.448;18.824;2023-09-18T03:25:58;34.28;32.95;36.75;;
67398;Laerm;57728;50.448;18.824;2023-09-18T03:28:02;34.36;33.11;42.53;;
67398;Laerm;57728;50.448;18.824;2023-09-18T03:30:06;34.26;33.17;41.02;;
67398;Laerm;57728;50.448;18.824;2023-09-18T03:32:08;34.37;33.07;38.29;;
67398;Laerm;57728;50.448;18.824;2023-09-18T03:34:13;34.53;33.13;46.63;;
67398;Laerm;57728;50.448;18.824;2023-09-18T03:36:15;34.69;33.12;46.31;;
67398;Laerm;57728;50.448;18.824;2023-09-18T03:38:17;34.52;33.16;49.76;;
67398;Laerm;57728;50.448;18.824;2023-09-18T03:40:22;34.35;33.20;37.12;;
67398;Laerm;57728;50.448;18.824;2023-09-18T03:42:23;34.22;33.04;35.55;;
67398;Laerm;57728;50.448;18.824;2023-09-18T03:44:24;34.26;32.86;42.13;;
67398;Laerm;57728;50.448;18.824;2023-09-18T03:46:27;34.25;33.17;36.19;;
67398;Laerm;57728;50.448;18.824;2023-09-18T03:48:28;34.47;33.23;37.94;;
67398;Laerm;57728;50.448;18.824;2023-09-18T03:50:29;34.27;33.18;35.56;;
67398;Laerm;57728;50.448;18.824;2023-09-18T03:52:35;34.24;33.14;35.44;;
67398;Laerm;57728;50.448;18.824;2023-09-18T03:54:36;34.34;33.07;38.62;;
67398;Laerm;57728;50.448;18.824;2023-09-18T03:56:37;34.32;33.23;38.97;;
67398;Laerm;57728;50.448;18.824;2023-09-18T03:58:39;34.38;33.04;38.60;;
67398;Laerm;57728;50.448;18.824;2023-09-18T04:00:41;34.42;33.04;45.45;;
67398;Laerm;57728;50.448;18.824;2023-09-18T04:02:43;34.30;32.91;40.52;;
67398;Laerm;57728;50.448;18.824;2023-09-18T04:04:45;34.45;33.24;37.27;;
67398;Laerm;57728;50.448;18.824;2023-09-18T04:06:46;34.47;33.08;40.27;;
67398;Laerm;57728;50.448;18.824;2023-09-18T04:08:47;34.33;33.08;38.17;;
67398;Laerm;57728;50.448;18.824;2023-09-18T04:10:49;34.41;32.99;36.83;;
67398;Laerm;57728;50.448;18.824;2023-09-18T04:12:51;34.50;33.15;39.69;;
67398;Laerm;57728;50.448;18.824;2023-09-18T04:14:52;34.51;33.16;41.71;;
67398;Laerm;57728;50.448;18.824;2023-09-18T04:16:54;34.52;33.27;37.95;;
67398;Laerm;57728;50.448;18.824;2023-09-18T04:18:55;34.86;33.40;42.14;;
67398;Laerm;57728;50.448;18.824;2023-09-18T04:20:56;34.53;33.04;38.94;;
67398;Laerm;57728;50.448;18.824;2023-09-18T04:23:28;34.48;33.15;42.25;;
67398;Laerm;57728;50.448;18.824;2023-09-18T04:25:29;34.47;33.19;37.34;;
67398;Laerm;57728;50.448;18.824;2023-09-18T04:27:32;36.71;33.70;44.67;;
67398;Laerm;57728;50.448;18.824;2023-09-18T04:29:34;34.59;33.38;39.48;;
67398;Laerm;57728;50.448;18.824;2023-09-18T04:31:36;35.30;33.61;41.63;;
67398;Laerm;57728;50.448;18.824;2023-09-18T04:33:39;34.90;33.64;38.53;;
67398;Laerm;57728;50.448;18.824;2023-09-18T04:35:41;34.56;33.51;36.67;;
67398;Laerm;57728;50.448;18.824;2023-09-18T04:37:42;34.74;33.36;37.10;;
67398;Laerm;57728;50.448;18.824;2023-09-18T04:39:44;34.78;33.32;38.98;;
67398;Laerm;57728;50.448;18.824;2023-09-18T04:41:46;34.79;33.48;40.18;;
67398;Laerm;57728;50.448;18.824;2023-09-18T04:43:47;35.96;33.72;42.05;;
67398;Laerm;57728;50.448;18.824;2023-09-18T04:45:49;34.79;33.62;39.26;;
67398;Laerm;57728;50.448;18.824;2023-09-18T04:47:53;34.68;33.50;36.99;;
67398;Laerm;57728;50.448;18.824;2023-09-18T04:49:54;34.95;33.52;40.64;;
67398;Laerm;57728;50.448;18.824;2023-09-18T04:51:55;34.77;33.58;37.68;;
67398;Laerm;57728;50.448;18.824;2023-09-18T04:53:59;34.88;33.56;41.15;;
67398;Laerm;57728;50.448;18.824;2023-09-18T04:56:00;34.91;33.64;42.33;;
67398;Laerm;57728;50.448;18.824;2023-09-18T04:58:01;34.99;33.65;39.98;;
67398;Laerm;57728;50.448;18.824;2023-09-18T05:00:06;35.24;33.51;42.73;;
67398;Laerm;57728;50.448;18.824;2023-09-18T05:02:13;34.84;33.43;46.13;;
67398;Laerm;57728;50.448;18.824;2023-09-18T05:04:14;34.84;33.40;42.73;;
67398;Laerm;57728;50.448;18.824;2023-09-18T05:06:16;34.86;33.73;39.86;;
67398;Laerm;57728;50.448;18.824;2023-09-18T05:08:18;34.93;33.45;37.27;;
67398;Laerm;57728;50.448;18.824;2023-09-18T05:10:20;34.79;33.64;38.23;;
67398;Laerm;57728;50.448;18.824;2023-09-18T05:12:22;34.72;33.51;39.71;;
67398;Laerm;57728;50.448;18.824;2023-09-18T05:14:24;34.96;33.60;44.96;;
67398;Laerm;57728;50.448;18.824;2023-09-18T05:16:25;34.91;33.55;43.31;;
67398;Laerm;57728;50.448;18.824;2023-09-18T05:18:27;35.12;33.48;41.99;;
67398;Laerm;57728;50.448;18.824;2023-09-18T05:20:29;35.31;33.84;38.81;;
67398;Laerm;57728;50.448;18.824;2023-09-18T05:22:30;35.48;33.88;41.87;;
67398;Laerm;57728;50.448;18.824;2023-09-18T05:24:32;34.95;33.57;41.64;;
67398;Laerm;57728;50.448;18.824;2023-09-18T05:26:33;35.87;33.82;45.08;;
67398;Laerm;57728;50.448;18.824;2023-09-18T05:28:35;34.79;33.51;38.78;;
67398;Laerm;57728;50.448;18.824;2023-09-18T05:30:37;35.18;33.56;46.25;;
67398;Laerm;57728;50.448;18.824;2023-09-18T05:32:43;34.94;33.58;41.66;;
67398;Laerm;57728;50.448;18.824;2023-09-18T05:34:45;35.80;33.52;46.21;;
67398;Laerm;57728;50.448;18.824;2023-09-18T05:36:47;34.76;33.38;40.14;;
67398;Laerm;57728;50.448;18.824;2023-09-18T05:38:48;34.71;33.34;38.29;;
67398;Laerm;57728;50.448;18.824;2023-09-18T05:40:49;34.74;33.37;39.81;;
67398;Laerm;57728;50.448;18.824;2023-09-18T05:42:51;35.01;33.40;45.75;;
67398;Laerm;57728;50.448;18.824;2023-09-18T05:44:52;34.87;33.18;42.66;;
67398;Laerm;57728;50.448;18.824;2023-09-18T05:46:55;34.85;33.07;41.24;;
67398;Laerm;57728;50.448;18.824;2023-09-18T05:48:57;34.79;33.25;42.65;;
67398;Laerm;57728;50.448;18.824;2023-09-18T05:50:59;34.70;33.32;43.00;;
67398;Laerm;57728;50.448;18.824;2023-09-18T05:53:00;34.74;33.22;42.13;;
67398;Laerm;57728;50.448;18.824;2023-09-18T05:55:05;34.90;33.32;40.01;;
67398;Laerm;57728;50.448;18.824;2023-09-18T05:57:07;34.79;33.36;38.95;;
67398;Laerm;57728;50.448;18.824;2023-09-18T05:59:09;34.91;33.18;41.39;;
67398;Laerm;57728;50.448;18.824;2023-09-18T06:01:10;34.95;33.12;50.51;;
67398;Laerm;57728;50.448;18.824;2023-09-18T06:03:12;34.62;33.27;41.14;;
67398;Laerm;57728;50.448;18.824;2023-09-18T06:05:13;34.63;33.08;41.11;;
67398;Laerm;57728;50.448;18.824;2023-09-18T06:07:17;34.58;33.05;44.92;;
67398;Laerm;57728;50.448;18.824;2023-09-18T06:09:18;34.70;33.09;49.79;;
67398;Laerm;57728;50.448;18.824;2023-09-18T06:11:19;34.64;32.94;46.65;;
67398;Laerm;57728;50.448;18.824;2023-09-18T06:13:23;34.27;33.11;38.12;;
67398;Laerm;57728;50.448;18.824;2023-09-18T06:15:24;34.27;33.00;40.65;;
67398;Laerm;57728;50.448;18.824;2023-09-18T06:17:26;34.82;33.16;43.23;;
67398;Laerm;57728;50.448;18.824;2023-09-18T06:19:28;34.15;33.13;39.86;;
67398;Laerm;57728;50.448;18.824;2023-09-18T06:21:29;35.12;33.05;52.35;;
67398;Laerm;57728;50.448;18.824;2023-09-18T06:23:30;35.08;33.11;49.93;;
67398;Laerm;57728;50.448;18.824;2023-09-18T06:25:32;34.14;32.93;39.15;;
67398;Laerm;57728;50.448;18.824;2023-09-18T06:27:35;34.25;32.86;44.38;;
67398;Laerm;57728;50.448;18.824;2023-09-18T06:29:37;34.25;32.81;40.72;;
67398;Laerm;57728;50.448;18.824;2023-09-18T06:31:40;34.51;32.81;39.98;;
67398;Laerm;57728;50.448;18.824;2023-09-18T06:33:41;34.22;32.84;39.75;;
67398;Laerm;57728;50.448;18.824;2023-09-18T06:35:43;34.36;33.00;38.58;;
67398;Laerm;57728;50.448;18.824;2023-09-18T06:37:45;34.45;32.97;44.20;;
67398;Laerm;57728;50.448;18.824;2023-09-18T06:39:46;34.29;32.94;41.21;;
67398;Laerm;57728;50.448;18.824;2023-09-18T06:41:47;34.59;33.14;39.29;;
67398;Laerm;57728;50.448;18.824;2023-09-18T06:43:49;34.34;33.09;44.14;;
67398;Laerm;57728;50.448;18.824;2023-09-18T06:45:51;34.57;32.87;46.81;;
67398;Laerm;57728;50.448;18.824;2023-09-18T06:47:52;35.01;33.09;51.12;;
67398;Laerm;57728;50.448;18.824;2023-09-18T06:49:54;34.59;33.04;45.43;;
67398;Laerm;57728;50.448;18.824;2023-09-18T06:51:55;34.33;32.85;38.00;;
67398;Laerm;57728;50.448;18.824;2023-09-18T06:53:57;34.59;33.10;41.86;;
67398;Laerm;57728;50.448;18.824;2023-09-18T06:55:59;34.30;33.02;40.12;;
67398;Laerm;57728;50.448;18.824;2023-09-18T06:58:00;34.19;32.88;39.57;;
67398;Laerm;57728;50.448;18.824;2023-09-18T07:00:01;34.38;32.98;44.58;;
67398;Laerm;57728;50.448;18.824;2023-09-18T07:02:04;34.36;32.88;41.76;;
67398;Laerm;57728;50.448;18.824;2023-09-18T07:04:05;34.57;32.90;45.56;;
67398;Laerm;57728;50.448;18.824;2023-09-18T07:06:06;34.23;32.73;42.85;;
67398;Laerm;57728;50.448;18.824;2023-09-18T07:08:09;34.20;32.96;44.88;;
67398;Laerm;57728;50.448;18.824;2023-09-18T07:10:12;34.57;32.94;53.91;;
67398;Laerm;57728;50.448;18.824;2023-09-18T07:12:13;34.77;32.93;49.97;;
67398;Laerm;57728;50.448;18.824;2023-09-18T07:14:15;34.54;32.83;45.96;;
67398;Laerm;57728;50.448;18.824;2023-09-18T07:16:17;34.25;32.73;44.37;;
67398;Laerm;57728;50.448;18.824;2023-09-18T07:18:18;34.36;32.63;39.97;;
67398;Laerm;57728;50.448;18.824;2023-09-18T07:20:20;34.77;32.82;42.08;;
67398;Laerm;57728;50.448;18.824;2023-09-18T07:22:23;34.11;32.95;36.79;;
67398;Laerm;57728;50.448;18.824;2023-09-18T07:24:24;34.18;32.92;43.31;;
67398;Laerm;57728;50.448;18.824;2023-09-18T07:26:26;34.25;32.55;41.90;;
67398;Laerm;57728;50.448;18.824;2023-09-18T07:28:28;34.47;32.57;48.49;;
67398;Laerm;57728;50.448;18.824;2023-09-18T07:30:29;34.04;32.92;36.26;;
67398;Laerm;57728;50.448;18.824;2023-09-18T07:32:31;34.61;32.62;42.67;;
67398;Laerm;57728;50.448;18.824;2023-09-18T07:34:33;34.25;32.89;38.98;;
67398;Laerm;57728;50.448;18.824;2023-09-18T07:36:34;34.47;32.86;45.16;;
67398;Laerm;57728;50.448;18.824;2023-09-18T07:38:36;34.63;32.94;46.83;;
67398;Laerm;57728;50.448;18.824;2023-09-18T07:40:38;34.80;32.68;49.80;;
67398;Laerm;57728;50.448;18.824;2023-09-18T07:42:39;34.15;32.99;40.92;;
67398;Laerm;57728;50.448;18.824;2023-09-18T07:44:41;35.15;33.05;50.03;;
67398;Laerm;57728;50.448;18.824;2023-09-18T07:46:43;34.44;32.93;44.38;;
67398;Laerm;57728;50.448;18.824;2023-09-18T07:48:44;34.85;32.85;45.82;;
67398;Laerm;57728;50.448;18.824;2023-09-18T07:50:46;34.34;32.74;44.78;;
67398;Laerm;57728;50.448;18.824;2023-09-18T07:52:47;34.61;32.81;46.12;;
67398;Laerm;57728;50.448;18.824;2023-09-18T07:54:48;34.35;32.73;43.26;;
67398;Laerm;57728;50.448;18.824;2023-09-18T07:56:50;34.25;32.88;42.89;;
67398;Laerm;57728;50.448;18.824;2023-09-18T07:58:51;34.25;32.70;40.92;;
67398;Laerm;57728;50.448;18.824;2023-09-18T08:00:52;34.46;32.97;39.27;;
67398;Laerm;57728;50.448;18.824;2023-09-18T08:02:55;34.60;32.73;45.14;;
67398;Laerm;57728;50.448;18.824;2023-09-18T08:05:01;34.42;32.76;42.37;;
67398;Laerm;57728;50.448;18.824;2023-09-18T08:07:04;34.25;32.77;38.69;;
67398;Laerm;57728;50.448;18.824;2023-09-18T08:09:08;34.31;33.00;45.44;;
67398;Laerm;57728;50.448;18.824;2023-09-18T08:11:15;35.26;33.06;49.06;;
67398;Laerm;57728;50.448;18.824;2023-09-18T08:13:17;34.86;32.98;49.45;;
67398;Laerm;57728;50.448;18.824;2023-09-18T08:15:20;35.54;32.98;49.54;;
67398;Laerm;57728;50.448;18.824;2023-09-18T08:17:21;35.83;32.91;50.50;;
67398;Laerm;57728;50.448;18.824;2023-09-18T08:19:22;34.40;32.84;43.01;;
67398;Laerm;57728;50.448;18.824;2023-09-18T08:21:25;34.52;32.68;40.71;;
67398;Laerm;57728;50.448;18.824;2023-09-18T08:23:26;34.33;32.86;47.73;;
67398;Laerm;57728;50.448;18.824;2023-09-18T08:25:28;35.21;32.61;44.57;;
67398;Laerm;57728;50.448;18.824;2023-09-18T08:27:30;34.75;32.78;50.71;;
67398;Laerm;57728;50.448;18.824;2023-09-18T08:29:31;34.53;32.63;50.88;;
67398;Laerm;57728;50.448;18.824;2023-09-18T08:31:32;33.84;32.61;37.39;;
67398;Laerm;57728;50.448;18.824;2023-09-18T08:33:34;34.68;32.79;47.59;;
67398;Laerm;57728;50.448;18.824;2023-09-18T08:35:37;35.14;32.76;53.77;;
67398;Laerm;57728;50.448;18.824;2023-09-18T08:37:41;34.79;32.57;46.32;;
67398;Laerm;57728;50.448;18.824;2023-09-18T08:39:43;34.75;33.06;48.35;;
67398;Laerm;57728;50.448;18.824;2023-09-18T08:41:51;34.85;32.87;50.00;;
67398;Laerm;57728;50.448;18.824;2023-09-18T08:44:01;34.12;32.42;41.24;;
67398;Laerm;57728;50.448;18.824;2023-09-18T08:46:05;36.20;32.75;53.62;;
67398;Laerm;57728;50.448;18.824;2023-09-18T08:48:06;35.12;32.81;42.27;;
67398;Laerm;57728;50.448;18.824;2023-09-18T08:50:09;35.03;32.81;45.94;;
67398;Laerm;57728;50.448;18.824;2023-09-18T08:52:15;37.65;33.07;62.36;;
67398;Laerm;57728;50.448;18.824;2023-09-18T08:54:17;34.32;32.83;40.77;;
67398;Laerm;57728;50.448;18.824;2023-09-18T08:56:21;34.62;32.83;48.15;;
67398;Laerm;57728;50.448;18.824;2023-09-18T08:58:25;34.84;32.81;51.48;;
67398;Laerm;57728;50.448;18.824;2023-09-18T09:00:27;35.19;32.98;47.66;;
67398;Laerm;57728;50.448;18.824;2023-09-18T09:02:28;34.72;32.95;45.44;;
67398;Laerm;57728;50.448;18.824;2023-09-18T09:04:30;36.55;33.21;52.45;;
67398;Laerm;57728;50.448;18.824;2023-09-18T09:06:31;35.41;33.01;49.11;;
67398;Laerm;57728;50.448;18.824;2023-09-18T09:08:34;34.67;32.86;44.51;;
67398;Laerm;57728;50.448;18.824;2023-09-18T09:10:36;35.27;33.18;48.67;;
67398;Laerm;57728;50.448;18.824;2023-09-18T09:13:01;35.59;32.80;60.67;;
67398;Laerm;57728;50.448;18.824;2023-09-18T09:15:04;34.60;33.07;40.28;;
67398;Laerm;57728;50.448;18.824;2023-09-18T09:17:06;34.76;32.93;46.28;;
67398;Laerm;57728;50.448;18.824;2023-09-18T09:19:07;37.08;32.93;63.03;;
67398;Laerm;57728;50.448;18.824;2023-09-18T09:21:08;34.27;32.82;41.44;;
67398;Laerm;57728;50.448;18.824;2023-09-18T09:23:10;35.59;32.94;42.90;;
67398;Laerm;57728;50.448;18.824;2023-09-18T09:27:22;36.91;33.88;52.40;;
67398;Laerm;57728;50.448;18.824;2023-09-18T09:29:24;37.86;34.16;55.44;;
67398;Laerm;57728;50.448;18.824;2023-09-18T09:31:28;37.40;33.76;54.28;;
67398;Laerm;57728;50.448;18.824;2023-09-18T09:33:30;35.30;33.52;45.03;;
67398;Laerm;57728;50.448;18.824;2023-09-18T09:35:36;35.46;33.62;46.74;;
67398;Laerm;57728;50.448;18.824;2023-09-18T09:37:37;36.01;33.98;44.88;;
67398;Laerm;57728;50.448;18.824;2023-09-18T09:39:51;36.00;33.62;49.96;;
67398;Laerm;57728;50.448;18.824;2023-09-18T09:41:53;36.09;33.90;43.86;;
67398;Laerm;57728;50.448;18.824;2023-09-18T09:43:55;36.76;32.94;62.65;;
67398;Laerm;57728;50.448;18.824;2023-09-18T09:45:59;36.19;33.61;50.08;;
67398;Laerm;57728;50.448;18.824;2023-09-18T09:48:04;36.35;33.75;40.65;;
67398;Laerm;57728;50.448;18.824;2023-09-18T09:50:13;36.84;34.24;49.81;;
67398;Laerm;57728;50.448;18.824;2023-09-18T09:52:19;36.58;34.31;46.74;;
67398;Laerm;57728;50.448;18.824;2023-09-18T09:54:33;36.31;34.21;48.31;;
67398;Laerm;57728;50.448;18.824;2023-09-18T09:56:49;35.12;33.41;40.26;;
67398;Laerm;57728;50.448;18.824;2023-09-18T09:59:05;35.42;33.31;42.51;;
67398;Laerm;57728;50.448;18.824;2023-09-18T10:01:13;34.51;32.88;37.50;;
67398;Laerm;57728;50.448;18.824;2023-09-18T10:03:20;34.71;33.13;44.44;;
67398;Laerm;57728;50.448;18.824;2023-09-18T10:05:27;35.51;33.27;50.70;;
67398;Laerm;57728;50.448;18.824;2023-09-18T10:07:30;35.50;33.34;45.00;;
67398;Laerm;57728;50.448;18.824;2023-09-18T10:09:35;35.79;33.33;50.44;;
67398;Laerm;57728;50.448;18.824;2023-09-18T10:11:51;35.71;33.08;48.82;;
67398;Laerm;57728;50.448;18.824;2023-09-18T10:14:12;35.77;33.13;53.24;;
67398;Laerm;57728;50.448;18.824;2023-09-18T10:16:18;35.30;33.86;41.00;;
67398;Laerm;57728;50.448;18.824;2023-09-18T10:18:55;35.63;33.59;47.18;;
67398;Laerm;57728;50.448;18.824;2023-09-18T10:21:15;36.87;34.16;56.10;;
67398;Laerm;57728;50.448;18.824;2023-09-18T10:23:59;35.37;33.32;49.28;;
67398;Laerm;57728;50.448;18.824;2023-09-18T10:26:09;34.77;32.66;48.84;;
67398;Laerm;57728;50.448;18.824;2023-09-18T10:28:15;34.06;32.59;43.83;;
67398;Laerm;57728;50.448;18.824;2023-09-18T10:30:16;33.99;32.44;37.72;;
67398;Laerm;57728;50.448;18.824;2023-09-18T10:32:22;34.42;32.63;39.98;;
67398;Laerm;57728;50.448;18.824;2023-09-18T10:34:29;34.49;32.69;43.89;;
67398;Laerm;57728;50.448;18.824;2023-09-18T10:36:33;34.50;32.77;45.67;;
67398;Laerm;57728;50.448;18.824;2023-09-18T10:38:38;35.20;32.82;51.23;;
67398;Laerm;57728;50.448;18.824;2023-09-18T10:40:42;36.92;32.72;52.67;;
67398;Laerm;57728;50.448;18.824;2023-09-18T10:42:48;34.69;33.01;40.57;;
67398;Laerm;57728;50.448;18.824;2023-09-18T10:44:54;42.84;33.34;71.77;;
67398;Laerm;57728;50.448;18.824;2023-09-18T10:46:56;35.82;33.33;48.21;;
67398;Laerm;57728;50.448;18.824;2023-09-18T10:49:00;35.95;33.56;45.63;;
67398;Laerm;57728;50.448;18.824;2023-09-18T10:51:02;35.21;32.99;46.78;;
67398;Laerm;57728;50.448;18.824;2023-09-18T10:53:06;35.39;33.55;45.95;;
67398;Laerm;57728;50.448;18.824;2023-09-18T10:55:12;35.58;33.25;44.36;;
67398;Laerm;57728;50.448;18.824;2023-09-18T10:57:15;38.08;33.34;56.64;;
67398;Laerm;57728;50.448;18.824;2023-09-18T10:59:16;35.37;33.14;46.65;;
67398;Laerm;57728;50.448;18.824;2023-09-18T11:01:18;34.65;32.83;43.99;;
67398;Laerm;57728;50.448;18.824;2023-09-18T11:03:23;35.08;32.61;42.29;;
67398;Laerm;57728;50.448;18.824;2023-09-18T11:05:32;35.24;33.07;45.50;;
67398;Laerm;57728;50.448;18.824;2023-09-18T11:07:33;34.65;33.08;43.31;;
67398;Laerm;57728;50.448;18.824;2023-09-18T11:09:44;34.78;32.68;50.20;;
67398;Laerm;57728;50.448;18.824;2023-09-18T11:11:45;35.69;33.12;48.90;;
67398;Laerm;57728;50.448;18.824;2023-09-18T11:13:53;36.68;32.74;53.06;;
67398;Laerm;57728;50.448;18.824;2023-09-18T11:16:19;34.28;32.67;42.56;;
67398;Laerm;57728;50.448;18.824;2023-09-18T11:18:33;34.66;32.89;45.10;;
67398;Laerm;57728;50.448;18.824;2023-09-18T11:20:35;35.26;32.97;48.51;;
67398;Laerm;57728;50.448;18.824;2023-09-18T11:22:58;34.99;32.84;44.24;;